Time;durP1;ratioP1;P1;durP2;ratioP2;P2;SDS_P1;SDS_P2;PMS_P1;PMS_P2;Temp;Humidity;BMP_temperature;BMP_pressure;BME280_temperature;BME280_humidity;BME280_pressure;Samples;Min_cycle;Max_cycle;Signal;HPM_P1;HPM_P2
2022/02/23 00:07:38;;;;;;;33.50;11.70;;;;;;;1.91;76.15;98321.55;434329;1265;99264;-40
2022/02/23 00:17:46;;;;;;;36.50;10.00;;;;;;;1.87;76.02;98311.41;434296;1264;112297;-41
2022/02/23 00:27:53;;;;;;;26.50;8.50;;;;;;;1.91;75.89;98302.45;434292;1264;108873;-43
2022/02/23 00:38:00;;;;;;;20.40;7.80;;;;;;;2.01;75.69;98287.16;434213;1265;99239;-40
2022/02/23 00:48:07;;;;;;;29.00;10.50;;;;;;;2.14;75.66;98281.54;434288;1265;112425;-41
2022/02/23 00:58:14;;;;;;;34.80;9.50;;;;;;;2.19;75.55;98263.90;434380;1265;107851;-43
2022/02/23 01:08:22;;;;;;;32.20;10.20;;;;;;;2.20;75.45;98249.05;434374;1265;98043;-40
2022/02/23 01:18:29;;;;;;;30.30;9.50;;;;;;;2.19;75.31;98233.63;434267;1264;112653;-43
2022/02/23 01:28:38;;;;;;;24.30;7.50;;;;;;;2.27;75.09;98218.21;434232;1264;109311;-45
2022/02/23 01:38:44;;;;;;;20.90;7.30;;;;;;;2.41;75.11;98208.88;434298;1265;99279;-40
2022/02/23 01:48:51;;;;;;;32.80;8.60;;;;;;;2.48;75.11;98194.75;434347;1264;112489;-42
2022/02/23 01:58:59;;;;;;;21.70;7.60;;;;;;;2.51;75.02;98188.71;434332;1265;109594;-42
2022/02/23 02:09:06;;;;;;;28.00;7.80;;;;;;;2.50;75.06;98178.67;434436;1263;99244;-41
2022/02/23 02:19:13;;;;;;;20.90;5.90;;;;;;;2.52;75.01;98163.55;434996;1254;113448;-41
2022/02/23 02:29:21;;;;;;;15.80;4.90;;;;;;;2.65;74.68;98162.70;434089;1264;109816;-40
2022/02/23 02:49:36;;;;;;;23.40;6.70;;;;;;;2.58;75.37;98168.36;434210;1264;112434;-41
2022/02/23 02:59:44;;;;;;;21.70;5.70;;;;;;;2.44;75.74;98160.32;434047;1264;108778;-41
2022/02/23 03:09:51;;;;;;;9.40;3.90;;;;;;;2.34;76.19;98154.60;434124;1264;99277;-41
2022/02/23 03:19:59;;;;;;;11.50;4.60;;;;;;;2.23;76.62;98157.73;434018;1264;108918;-43
2022/02/23 03:30:06;;;;;;;11.40;3.80;;;;;;;2.15;77.24;98157.46;434098;1264;99281;-40
2022/02/23 03:40:14;;;;;;;14.30;5.80;;;;;;;2.06;77.65;98165.37;433995;1263;112403;-40
2022/02/23 03:50:22;;;;;;;15.60;5.20;;;;;;;1.83;78.21;98171.92;434130;1264;108875;-40
2022/02/23 04:00:29;;;;;;;11.60;4.20;;;;;;;1.63;78.56;98180.77;434003;1264;99353;-42
2022/02/23 04:10:36;;;;;;;9.80;3.70;;;;;;;1.56;78.90;98189.23;433996;1264;112004;-41
2022/02/23 04:20:44;;;;;;;12.10;4.30;;;;;;;1.55;79.15;98186.89;433903;1264;108853;-42
2022/02/23 04:30:51;;;;;;;8.00;4.20;;;;;;;1.65;79.49;98197.42;433982;1265;101402;-41
2022/02/23 04:51:07;;;;;;;11.90;5.50;;;;;;;1.85;79.93;98217.41;434064;1264;99224;-41
2022/02/23 05:01:14;;;;;;;15.30;6.80;;;;;;;1.91;80.00;98220.87;434170;1265;112652;-45
2022/02/23 05:11:21;;;;;;;10.60;6.20;;;;;;;1.99;80.11;98236.79;434277;1264;107860;-42
2022/02/23 05:21:28;;;;;;;8.70;5.60;;;;;;;2.19;80.22;98246.39;434161;1264;98837;-42
2022/02/23 05:31:35;;;;;;;6.60;3.50;;;;;;;2.53;81.19;98242.29;434180;1264;108945;-40
2022/02/23 05:41:45;;;;;;;6.90;2.80;;;;;;;2.95;81.99;98253.63;434184;1263;98014;-44
2022/02/23 05:51:53;;;;;;;8.70;2.80;;;;;;;3.28;83.23;98279.38;434167;1264;112738;-40
2022/02/23 06:02:00;;;;;;;12.90;3.00;;;;;;;3.47;83.62;98299.27;434125;1265;107378;-42
2022/02/23 06:12:05;;;;;;;9.00;3.20;;;;;;;3.55;83.44;98315.66;433990;1266;99289;-41
2022/02/23 06:22:12;;;;;;;10.30;2.90;;;;;;;3.64;84.22;98338.52;434128;1265;108873;-43
2022/02/23 06:32:19;;;;;;;13.40;3.30;;;;;;;3.72;84.09;98370.73;433864;1266;99321;-41
2022/02/23 06:42:27;;;;;;;7.00;2.40;;;;;;;3.68;84.86;98394.20;434128;1266;112422;-41
2022/02/23 06:52:35;;;;;;;11.40;3.20;;;;;;;3.64;85.28;98426.45;433954;1266;108949;-41
2022/02/23 07:02:42;;;;;;;7.50;2.90;;;;;;;3.64;85.45;98449.13;432070;1266;2914642;-40
2022/02/23 07:12:48;;;;;;;16.20;3.30;;;;;;;3.65;85.20;98474.45;434104;1266;108836;-43
2022/02/23 07:33:02;;;;;;;20.20;5.00;;;;;;;3.73;84.67;98531.66;434364;1264;112445;-40
2022/02/23 07:43:09;;;;;;;18.70;4.60;;;;;;;3.64;84.32;98572.55;434091;1265;108823;-41
2022/02/23 07:53:18;;;;;;;23.50;3.40;;;;;;;3.77;84.39;98581.84;434121;1265;99305;-41
2022/02/23 08:03:35;;;;;;;25.10;5.30;;;;;;;3.96;84.06;98605.48;433889;1266;109265;-41
2022/02/23 08:13:41;;;;;;;;;;;;;;;4.03;83.36;98626.98;434145;1266;99276;-41
2022/02/23 08:23:47;;;;;;;33.10;7.00;;;;;;;4.19;83.00;98635.50;434055;1265;112255;-40
2022/02/23 08:33:55;;;;;;;17.90;4.50;;;;;;;4.34;82.54;98652.91;434121;1264;108789;-41
2022/02/23 08:44:06;;;;;;;18.60;3.30;;;;;;;4.34;81.98;98661.41;434078;1264;99278;-40
2022/02/23 08:54:15;;;;;;;14.70;4.10;;;;;;;4.61;81.21;98663.75;434159;1264;108832;-43
2022/02/23 09:04:22;;;;;;;36.10;15.30;;;;;;;4.88;80.76;98672.81;433988;1264;99343;-41
2022/02/23 09:14:30;;;;;;;9.60;3.20;;;;;;;5.09;79.36;98677.56;434094;1264;112903;-42
2022/02/23 09:24:36;;;;;;;16.40;3.70;;;;;;;5.08;77.24;98691.15;433967;1264;109693;-41
2022/02/23 09:34:46;;;;;;;29.40;4.90;;;;;;;5.15;77.15;98707.02;434375;1264;99366;-42
2022/02/23 09:44:58;;;;;;;10.90;3.10;;;;;;;5.39;76.52;98722.09;434221;1264;112380;-41
2022/02/23 09:55:20;;;;;;;15.50;3.40;;;;;;;5.36;76.70;98738.80;434149;1264;108853;-41
2022/02/23 10:05:27;;;;;;;17.50;5.30;;;;;;;5.30;76.53;98743.94;434122;1265;99282;-41
2022/02/23 10:15:40;;;;;;;12.70;2.60;;;;;;;5.34;76.05;98757.16;434330;1264;108945;-40
2022/02/23 10:25:53;;;;;;;20.00;4.20;;;;;;;5.62;75.26;98761.11;434110;1264;99248;-40
2022/02/23 10:36:02;;;;;;;13.00;3.80;;;;;;;5.56;74.99;98782.05;433973;1264;112638;-40
2022/02/23 10:56:20;;;;;;;11.50;3.00;;;;;;;5.91;74.36;98804.24;418135;1312;637718;-40
2022/02/23 11:06:24;;;;;;;22.40;5.30;;;;;;;5.74;73.28;98812.64;429798;1271;3395027;-39
2022/02/23 11:26:35;;;;;;;13.20;3.00;;;;;;;5.74;72.75;98815.12;432315;1273;95629;-41
2022/02/23 11:47:08;;;;;;;14.70;3.40;;;;;;;6.33;71.41;98826.15;432446;1270;107390;-40
2022/02/23 11:57:11;;;;;;;14.10;4.70;;;;;;;6.56;69.70;98833.29;432482;1270;109057;-42
2022/02/23 12:07:15;;;;;;;21.40;5.60;;;;;;;6.63;67.72;98838.63;432507;1270;95537;-41
2022/02/23 12:17:51;;;;;;;14.30;3.60;;;;;;;6.63;67.25;98850.16;432400;1273;95624;-41
2022/02/23 12:27:56;;;;;;;14.90;3.70;;;;;;;6.83;66.66;98863.55;432528;1270;108559;-41
2022/02/23 12:48:05;;;;;;;14.90;3.00;;;;;;;6.94;65.17;98876.23;432400;1270;108474;-40
2022/02/23 12:58:09;;;;;;;12.50;4.50;;;;;;;6.99;64.49;98880.67;432484;1270;97196;-41
2022/02/23 13:08:20;;;;;;;15.80;3.20;;;;;;;6.84;63.40;98895.45;432476;1270;109825;-41
2022/02/23 15:30:13;;;;;;;13.80;3.90;;;;;;;6.28;61.73;99065.39;421646;1302;648641;-41
2022/02/23 15:40:21;;;;;;;16.50;4.20;;;;;;;6.09;60.46;99080.64;430713;1277;95007;-41
2022/02/23 16:00:36;;;;;;;12.50;4.00;;;;;;;5.80;61.40;99110.11;433596;1270;107895;-40
2022/02/23 16:10:43;;;;;;;14.00;4.60;;;;;;;5.60;61.72;99116.27;433445;1271;108830;-40
2022/02/23 16:20:50;;;;;;;18.90;7.60;;;;;;;5.35;62.61;99132.55;433521;1269;95636;-40
2022/02/23 16:30:59;;;;;;;16.30;4.10;;;;;;;5.13;63.28;99148.88;433428;1270;94552;-40
2022/02/23 16:41:06;;;;;;;16.20;5.00;;;;;;;4.91;63.79;99163.50;433383;1270;108275;-39
2022/02/23 16:51:13;;;;;;;13.90;5.20;;;;;;;4.78;64.24;99174.32;433353;1271;108399;-41
2022/02/23 17:01:20;;;;;;;20.60;5.40;;;;;;;4.71;64.56;99188.69;433353;1269;108138;-40
2022/02/23 17:11:27;;;;;;;21.90;7.20;;;;;;;4.56;65.05;99199.56;433341;1270;96152;-40
2022/02/23 17:21:35;;;;;;;46.40;22.00;;;;;;;4.38;65.17;99208.77;433399;1269;96174;-40
2022/02/23 17:31:42;;;;;;;22.70;10.50;;;;;;;4.15;65.51;99212.28;433508;1270;109402;-43
2022/02/23 17:41:50;;;;;;;86.80;29.40;;;;;;;3.90;65.80;99226.23;433318;1269;109327;-42
2022/02/23 17:51:57;;;;;;;79.90;29.60;;;;;;;3.71;66.16;99240.14;433373;1270;108786;-42
2022/02/23 18:02:05;;;;;;;54.30;18.60;;;;;;;3.54;66.62;99243.27;433242;1271;95692;-40
2022/02/23 18:12:12;;;;;;;36.90;17.60;;;;;;;3.44;66.87;99253.65;433253;1270;96326;-41
2022/02/23 18:22:20;;;;;;;37.30;14.10;;;;;;;3.45;67.29;99263.60;433299;1269;108772;-40
2022/02/23 18:32:28;;;;;;;51.90;25.70;;;;;;;3.43;67.72;99274.66;433258;1269;107783;-43
2022/02/23 18:42:36;;;;;;;45.10;15.30;;;;;;;3.32;68.14;99280.54;433119;1270;107674;-41
2022/02/23 18:52:44;;;;;;;21.70;7.30;;;;;;;3.22;68.58;99287.31;433191;1269;95748;-40
2022/02/23 19:02:53;;;;;;;50.40;21.20;;;;;;;3.19;68.97;99292.27;432463;1271;96169;-42
2022/02/23 19:13:01;;;;;;;16.40;8.30;;;;;;;3.19;69.07;99301.80;433558;1269;109812;-41
2022/02/23 19:23:08;;;;;;;24.90;8.60;;;;;;;3.14;69.27;99306.88;433211;1271;108997;-41
2022/02/23 19:33:16;;;;;;;32.30;11.80;;;;;;;3.06;69.65;99305.30;433264;1270;96044;-41
2022/02/23 19:43:23;;;;;;;28.80;10.10;;;;;;;2.92;69.82;99309.60;433364;1270;95713;-41
2022/02/23 19:53:31;;;;;;;43.20;14.40;;;;;;;2.75;69.96;99315.73;433443;1269;109807;-40
2022/02/23 20:03:37;;;;;;;41.60;15.40;;;;;;;2.56;70.05;99317.73;433390;1269;108039;-41
2022/02/23 20:13:45;;;;;;;27.50;9.10;;;;;;;2.44;70.12;99320.11;432506;1271;109520;-40
2022/02/23 20:33:57;;;;;;;72.20;27.00;;;;;;;2.43;70.54;99324.71;433376;1269;108143;-41
2022/02/23 20:54:10;;;;;;;47.80;19.00;;;;;;;2.20;70.73;99346.64;433401;1270;95283;-41
2022/02/23 21:04:20;;;;;;;38.10;16.20;;;;;;;2.09;70.97;99359.24;433401;1270;95706;-41
2022/02/23 21:14:28;;;;;;;37.60;14.00;;;;;;;1.96;71.12;99379.41;433514;1269;109396;-40
2022/02/23 21:24:34;;;;;;;21.80;11.00;;;;;;;1.91;71.12;99385.98;433446;1269;108876;-41
2022/02/23 21:34:42;;;;;;;36.10;16.50;;;;;;;1.94;71.19;99389.84;433385;1270;97245;-42
2022/02/23 21:44:50;;;;;;;93.20;31.20;;;;;;;1.96;71.50;99391.64;433513;1269;109713;-41
2022/02/23 21:55:05;;;;;;;114.90;41.70;;;;;;;1.89;71.57;99379.70;433399;1269;109013;-41
2022/02/23 22:05:15;;;;;;;125.70;42.10;;;;;;;1.70;71.41;99380.11;433404;1269;108712;-43
2022/02/23 22:15:21;;;;;;;189.50;74.70;;;;;;;1.47;71.64;99379.54;433426;1271;95332;-42
2022/02/23 22:25:31;;;;;;;119.80;44.30;;;;;;;1.36;72.05;99373.94;433467;1269;95722;-41
2022/02/23 22:35:39;;;;;;;75.80;27.90;;;;;;;1.23;71.89;99370.23;433402;1270;109721;-41
2022/02/23 22:45:46;;;;;;;45.10;19.10;;;;;;;1.11;71.92;99368.62;433291;1269;108816;-40
2022/02/23 22:55:51;;;;;;;38.10;15.40;;;;;;;1.08;71.94;99375.69;433507;1270;96569;-42
2022/02/23 23:16:26;;;;;;;68.40;25.70;;;;;;;0.86;72.18;99372.48;433476;1269;108850;-41
2022/02/23 23:26:34;;;;;;;76.70;26.10;;;;;;;0.59;72.37;99367.44;433576;1270;108920;-41
2022/02/23 23:36:41;;;;;;;90.40;35.30;;;;;;;0.32;72.64;99371.97;433519;1270;96543;-41
2022/02/23 23:46:49;;;;;;;66.50;27.00;;;;;;;0.05;72.59;99371.63;433382;1270;97225;-41
2022/02/23 23:56:56;;;;;;;68.10;27.20;;;;;;;-0.06;72.92;99369.61;433277;1271;108708;-41
